Time;durP1;ratioP1;P1;durP2;ratioP2;P2;SDS_P1;SDS_P2;PMS_P1;PMS_P2;Temp;Humidity;BMP_temperature;BMP_pressure;BME280_temperature;BME280_humidity;BME280_pressure;Samples;Min_cycle;Max_cycle;Signal;HPM_P1;HPM_P2
2023/09/05 00:00:19;;;;;;;3.88;2.70;;;17.40;66.70;;;;;;5084513;28;20070;-69
2023/09/05 00:02:48;;;;;;;3.45;2.65;;;17.40;66.80;;;;;;5100979;28;20032;-70
2023/09/05 00:05:19;;;;;;;3.38;2.90;;;17.40;66.90;;;;;;5103228;28;20048;-70
2023/09/05 00:07:45;;;;;;;4.55;2.63;;;17.40;66.90;;;;;;5102389;28;20048;-69
2023/09/05 00:10:12;;;;;;;3.40;2.55;;;17.40;67.00;;;;;;5087945;28;20062;-70
2023/09/05 00:12:42;;;;;;;3.40;2.53;;;17.40;66.90;;;;;;5081475;28;20520;-69
2023/09/05 00:15:13;;;;;;;3.03;2.53;;;17.30;66.90;;;;;;5100790;28;20185;-70
2023/09/05 00:17:40;;;;;;;3.58;2.15;;;17.30;66.90;;;;;;5103184;28;20047;-69
2023/09/05 00:20:07;;;;;;;3.55;2.40;;;17.30;66.90;;;;;;5100913;28;20127;-70
2023/09/05 00:22:33;;;;;;;3.70;2.65;;;17.30;67.00;;;;;;5100115;28;20692;-69
2023/09/05 00:24:59;;;;;;;3.25;2.45;;;17.30;67.10;;;;;;5094635;28;20044;-70
2023/09/05 00:27:25;;;;;;;3.90;2.42;;;17.30;67.10;;;;;;5099801;28;20042;-70
2023/09/05 00:29:50;;;;;;;3.63;2.95;;;17.30;67.20;;;;;;5099457;28;20043;-70
2023/09/05 00:32:18;;;;;;;4.28;2.67;;;17.20;67.20;;;;;;5082822;28;20035;-69
2023/09/05 00:34:44;;;;;;;5.50;3.20;;;17.20;67.30;;;;;;5097656;28;20076;-69
2023/09/05 00:37:11;;;;;;;3.63;2.38;;;17.20;67.40;;;;;;5098838;28;20036;-69
2023/09/05 00:39:41;;;;;;;4.18;3.10;;;17.20;67.30;;;;;;5109988;28;20042;-70
2023/09/05 00:42:10;;;;;;;4.07;2.75;;;17.20;67.30;;;;;;5093981;28;20119;-69
2023/09/05 00:44:37;;;;;;;3.40;2.63;;;17.10;66.90;;;;;;5102944;28;20082;-70
2023/09/05 00:47:05;;;;;;;4.70;2.63;;;17.10;66.80;;;;;;5094599;28;21713;-70
2023/09/05 00:49:38;;;;;;;2.97;2.40;;;17.10;66.80;;;;;;5102469;28;20036;-70
2023/09/05 00:52:07;;;;;;;4.05;3.20;;;17.10;67.00;;;;;;5102228;28;20364;-70
2023/09/05 00:54:37;;;;;;;4.45;2.85;;;17.00;66.90;;;;;;5095658;28;20035;-70
2023/09/05 00:57:03;;;;;;;3.40;2.60;;;17.00;67.10;;;;;;5101696;28;20083;-70
2023/09/05 00:59:29;;;;;;;3.53;2.60;;;17.00;67.20;;;;;;5096765;28;20383;-70
2023/09/05 01:01:55;;;;;;;3.28;2.53;;;17.00;67.30;;;;;;5104148;28;20040;-70
2023/09/05 01:04:21;;;;;;;3.17;2.30;;;16.90;67.30;;;;;;5097140;28;20058;-69
2023/09/05 01:07:01;;;;;;;3.55;2.72;;;16.90;67.40;;;;;;5100856;28;20044;-70
2023/09/05 01:09:54;;;;;;;3.50;2.63;;;16.90;67.50;;;;;;5092082;28;20032;-70
2023/09/05 01:12:20;;;;;;;4.60;3.05;;;16.90;67.40;;;;;;5101508;28;20036;-70
2023/09/05 01:14:46;;;;;;;4.57;3.05;;;16.90;67.50;;;;;;5101051;28;20081;-70
2023/09/05 01:17:11;;;;;;;3.53;3.10;;;16.90;67.50;;;;;;5104833;28;20407;-69
2023/09/05 01:19:39;;;;;;;3.53;2.83;;;16.80;67.50;;;;;;5099539;28;20131;-70
2023/09/05 01:22:28;;;;;;;4.97;2.72;;;16.80;67.50;;;;;;5098140;28;20036;-70
2023/09/05 01:24:53;;;;;;;3.28;2.50;;;16.80;67.40;;;;;;5096285;28;20067;-70
2023/09/05 01:27:22;;;;;;;4.25;2.97;;;16.80;67.60;;;;;;5101878;28;20082;-70
2023/09/05 01:29:49;;;;;;;4.53;3.42;;;16.80;67.60;;;;;;5101003;28;20378;-69
2023/09/05 01:32:16;;;;;;;3.20;2.60;;;16.70;67.70;;;;;;5100951;28;20368;-70
2023/09/05 01:34:42;;;;;;;4.15;3.03;;;16.70;67.80;;;;;;5100421;28;20077;-70
2023/09/05 01:37:14;;;;;;;5.07;3.70;;;16.70;67.90;;;;;;5097889;28;20036;-70
2023/09/05 01:39:40;;;;;;;3.70;2.72;;;16.70;67.90;;;;;;5097179;28;20040;-70
2023/09/05 01:42:06;;;;;;;5.00;2.95;;;16.70;68.10;;;;;;5096207;28;20086;-69
2023/09/05 01:44:36;;;;;;;3.60;2.88;;;16.70;68.10;;;;;;5100431;28;20090;-70
2023/09/05 01:47:03;;;;;;;3.72;2.88;;;16.70;68.20;;;;;;5095367;28;20048;-70
2023/09/05 01:49:29;;;;;;;4.07;2.88;;;16.70;68.20;;;;;;5101530;28;20036;-70
2023/09/05 01:51:54;;;;;;;3.97;2.47;;;16.70;68.30;;;;;;5099473;28;20093;-70
2023/09/05 01:54:20;;;;;;;4.85;3.42;;;16.70;68.30;;;;;;5091930;28;20079;-70
2023/09/05 01:56:46;;;;;;;3.65;2.47;;;16.60;68.40;;;;;;5099707;28;20103;-70
2023/09/05 01:59:12;;;;;;;3.17;2.88;;;16.60;68.40;;;;;;5098040;28;20040;-70
2023/09/05 02:01:38;;;;;;;3.63;2.97;;;16.60;68.40;;;;;;5102125;28;20104;-70
2023/09/05 02:04:04;;;;;;;3.25;2.50;;;16.60;68.30;;;;;;5098050;28;20079;-70
2023/09/05 02:06:29;;;;;;;5.00;3.05;;;16.60;68.30;;;;;;5080326;28;20049;-70
2023/09/05 02:08:55;;;;;;;3.72;2.95;;;16.60;68.40;;;;;;5098476;28;20036;-70
2023/09/05 02:11:21;;;;;;;4.47;2.97;;;16.60;68.40;;;;;;5103270;28;20377;-70
2023/09/05 02:13:47;;;;;;;4.30;3.53;;;16.60;68.50;;;;;;5103495;28;20131;-70
2023/09/05 02:16:18;;;;;;;4.18;3.05;;;16.50;68.50;;;;;;5103681;28;20071;-70
2023/09/05 02:18:46;;;;;;;4.00;3.40;;;16.50;68.50;;;;;;5101531;28;20048;-70
2023/09/05 02:21:11;;;;;;;4.78;3.30;;;16.50;68.60;;;;;;5105942;28;20155;-70
2023/09/05 02:23:37;;;;;;;4.75;4.25;;;16.50;68.60;;;;;;5103240;28;20554;-70
2023/09/05 02:26:04;;;;;;;7.95;6.15;;;16.50;68.80;;;;;;5098690;28;20424;-70
2023/09/05 02:28:29;;;;;;;6.85;6.13;;;16.50;69.60;;;;;;5084765;28;20035;-70
2023/09/05 02:30:56;;;;;;;8.90;6.72;;;16.40;70.30;;;;;;5106944;28;20032;-70
2023/09/05 02:33:22;;;;;;;7.50;6.30;;;16.20;71.00;;;;;;5101730;28;20038;-70
2023/09/05 02:35:49;;;;;;;9.25;6.45;;;16.10;71.60;;;;;;5104315;28;20054;-70
2023/09/05 02:38:15;;;;;;;9.25;7.00;;;16.00;72.20;;;;;;5102947;28;20032;-70
2023/09/05 02:40:46;;;;;;;8.13;6.20;;;15.90;72.50;;;;;;5103629;28;20085;-70
2023/09/05 02:43:12;;;;;;;8.60;6.60;;;15.80;73.10;;;;;;5105649;28;20036;-70
2023/09/05 02:45:38;;;;;;;8.40;5.93;;;15.70;73.30;;;;;;5103080;28;20039;-70
2023/09/05 02:48:04;;;;;;;6.82;5.22;;;15.70;73.60;;;;;;5102100;28;20077;-69
2023/09/05 02:50:30;;;;;;;6.88;6.18;;;15.70;73.80;;;;;;5105924;28;20067;-70
2023/09/05 02:52:56;;;;;;;8.00;6.72;;;15.70;73.90;;;;;;5099089;28;20447;-70
2023/09/05 02:55:21;;;;;;;7.70;6.88;;;15.60;74.00;;;;;;5108132;28;20039;-70
2023/09/05 02:57:47;;;;;;;9.52;7.40;;;15.60;74.30;;;;;;5104527;28;20137;-70
2023/09/05 03:00:13;;;;;;;8.95;7.38;;;15.50;74.50;;;;;;5102466;28;20479;-70
2023/09/05 03:02:43;;;;;;;7.30;6.45;;;15.50;74.90;;;;;;5100464;28;20555;-69
2023/09/05 03:05:10;;;;;;;7.22;6.53;;;15.40;75.00;;;;;;5104112;28;20047;-70
2023/09/05 03:07:35;;;;;;;7.90;7.10;;;15.40;75.30;;;;;;5104148;28;20173;-69
2023/09/05 03:10:03;;;;;;;9.38;6.93;;;15.40;75.50;;;;;;5101990;28;20114;-70
2023/09/05 03:12:29;;;;;;;8.35;6.95;;;15.30;75.80;;;;;;5101544;28;20373;-70
2023/09/05 03:14:54;;;;;;;8.10;6.75;;;15.30;75.90;;;;;;5101624;28;20038;-70
2023/09/05 03:17:20;;;;;;;8.25;6.45;;;15.30;76.10;;;;;;5101730;28;20054;-70
2023/09/05 03:19:46;;;;;;;7.25;6.55;;;15.20;76.60;;;;;;5102007;28;20462;-70
2023/09/05 03:22:11;;;;;;;7.82;6.68;;;15.20;76.30;;;;;;5098841;28;20036;-70
2023/09/05 03:24:37;;;;;;;8.73;6.00;;;15.20;76.40;;;;;;5101909;28;20050;-69
2023/09/05 03:27:03;;;;;;;6.10;5.35;;;15.20;76.40;;;;;;5084115;28;20105;-70
2023/09/05 03:29:29;;;;;;;6.53;5.38;;;15.20;76.40;;;;;;5098874;28;20386;-70
2023/09/05 03:31:55;;;;;;;6.93;5.35;;;15.20;76.40;;;;;;5100451;28;20031;-70
2023/09/05 03:34:21;;;;;;;8.70;7.10;;;15.30;76.70;;;;;;5084511;28;20070;-70
2023/09/05 03:36:48;;;;;;;8.20;7.30;;;15.30;76.30;;;;;;5100301;28;20079;-69
2023/09/05 03:39:13;;;;;;;8.55;7.65;;;15.30;76.40;;;;;;5099953;28;20101;-69
2023/09/05 03:41:39;;;;;;;9.13;7.40;;;15.30;77.00;;;;;;5105646;28;20499;-70
2023/09/05 03:44:05;;;;;;;7.70;5.95;;;15.20;76.70;;;;;;5085015;28;20061;-69
2023/09/05 03:46:31;;;;;;;6.70;5.72;;;15.20;76.80;;;;;;5106648;28;20487;-70
2023/09/05 03:48:57;;;;;;;8.55;6.65;;;15.20;76.90;;;;;;5083950;28;20443;-69
2023/09/05 03:51:23;;;;;;;10.73;7.95;;;15.20;76.90;;;;;;5083956;28;20480;-70
2023/09/05 03:53:49;;;;;;;11.00;8.38;;;15.20;76.90;;;;;;5104939;28;20050;-70
2023/09/05 03:56:15;;;;;;;7.80;7.00;;;15.20;77.10;;;;;;5104120;28;20431;-69
2023/09/05 03:58:41;;;;;;;17.40;8.95;;;15.20;77.30;;;;;;5100197;28;20051;-70
2023/09/05 04:01:14;;;;;;;9.05;7.82;;;15.10;77.40;;;;;;5102831;28;20398;-70
2023/09/05 04:03:40;;;;;;;10.60;8.13;;;15.10;77.80;;;;;;5102344;28;20083;-70
2023/09/05 04:06:06;;;;;;;9.52;8.63;;;15.00;78.10;;;;;;5097601;28;20059;-70
2023/09/05 04:08:31;;;;;;;10.00;8.60;;;15.00;78.20;;;;;;5100959;28;20114;-70
2023/09/05 04:10:59;;;;;;;8.50;7.60;;;14.90;78.30;;;;;;5099922;28;20071;-70
2023/09/05 04:13:26;;;;;;;9.25;8.20;;;14.90;78.40;;;;;;5096407;28;20032;-70
2023/09/05 04:15:52;;;;;;;9.50;8.45;;;14.90;78.70;;;;;;5101466;28;20028;-70
2023/09/05 04:18:18;;;;;;;11.00;8.68;;;14.90;78.80;;;;;;5100774;28;20058;-70
2023/09/05 04:20:43;;;;;;;9.05;8.13;;;14.90;79.00;;;;;;5102749;28;20043;-70
2023/09/05 04:23:09;;;;;;;11.75;8.60;;;14.80;79.10;;;;;;5102289;28;20040;-70
2023/09/05 04:25:39;;;;;;;11.15;9.57;;;14.80;79.20;;;;;;5099943;28;20528;-69
2023/09/05 04:28:06;;;;;;;11.25;8.40;;;14.80;79.50;;;;;;5102817;28;20561;-70
2023/09/05 04:30:33;;;;;;;10.55;9.13;;;14.80;79.60;;;;;;5104594;28;20118;-69
2023/09/05 04:33:00;;;;;;;10.07;8.35;;;14.70;79.70;;;;;;5100110;28;20051;-70
2023/09/05 04:35:26;;;;;;;10.98;8.82;;;14.70;79.60;;;;;;5094222;28;20491;-70
2023/09/05 04:37:52;;;;;;;9.80;7.90;;;14.70;79.70;;;;;;5097089;28;20043;-70
2023/09/05 04:40:18;;;;;;;9.05;6.93;;;14.70;79.70;;;;;;5101532;28;20044;-70
2023/09/05 04:42:44;;;;;;;7.43;6.18;;;14.70;79.70;;;;;;5102419;28;20502;-70
2023/09/05 04:45:10;;;;;;;6.72;6.03;;;14.80;79.70;;;;;;5101644;28;20047;-70
2023/09/05 04:47:40;;;;;;;5.63;5.13;;;14.80;79.60;;;;;;5101876;28;20445;-70
2023/09/05 04:50:08;;;;;;;6.45;5.22;;;14.80;79.50;;;;;;5102126;28;20126;-70
2023/09/05 04:52:35;;;;;;;7.55;6.72;;;14.80;79.30;;;;;;5098959;28;20100;-70
2023/09/05 04:55:01;;;;;;;7.70;6.53;;;14.80;79.10;;;;;;5096912;28;20065;-70
2023/09/05 04:57:27;;;;;;;7.80;7.00;;;14.90;78.90;;;;;;5099875;28;20056;-70
2023/09/05 04:59:57;;;;;;;6.68;5.88;;;14.90;78.60;;;;;;5100721;28;20058;-69
2023/09/05 05:02:26;;;;;;;6.78;6.07;;;14.90;78.10;;;;;;5098418;28;20044;-70
2023/09/05 05:04:56;;;;;;;6.90;6.18;;;14.90;77.80;;;;;;5100428;28;20055;-70
2023/09/05 05:07:21;;;;;;;9.00;7.05;;;14.90;77.60;;;;;;5100629;28;20074;-70
2023/09/05 05:09:47;;;;;;;6.68;6.05;;;14.90;77.40;;;;;;5099658;28;20079;-70
2023/09/05 05:12:14;;;;;;;6.70;6.00;;;15.00;77.40;;;;;;5099884;28;20036;-70
2023/09/05 05:14:40;;;;;;;8.05;6.70;;;15.00;77.20;;;;;;5101749;28;20048;-70
2023/09/05 05:17:06;;;;;;;9.38;7.72;;;15.00;77.10;;;;;;5100387;28;20050;-70
2023/09/05 05:19:32;;;;;;;7.72;6.93;;;15.00;76.80;;;;;;5100705;28;20046;-70
2023/09/05 05:21:58;;;;;;;9.10;7.93;;;15.00;76.70;;;;;;5100719;28;20126;-70
2023/09/05 05:24:24;;;;;;;8.38;7.45;;;15.00;76.80;;;;;;5100808;28;20028;-69
2023/09/05 05:26:50;;;;;;;9.45;8.23;;;15.00;76.90;;;;;;5099960;28;20532;-70
2023/09/05 05:29:16;;;;;;;9.57;8.57;;;15.00;77.10;;;;;;5097955;28;20039;-69
2023/09/05 05:31:42;;;;;;;10.70;8.88;;;15.00;77.50;;;;;;5099697;28;20507;-70
2023/09/05 05:34:08;;;;;;;9.95;8.95;;;15.00;77.90;;;;;;5100575;28;20047;-69
2023/09/05 05:36:34;;;;;;;11.20;8.52;;;15.00;78.40;;;;;;5108472;28;20039;-70
2023/09/05 05:39:00;;;;;;;10.60;9.50;;;15.00;78.70;;;;;;5083923;28;20051;-69
2023/09/05 05:41:26;;;;;;;11.00;9.57;;;15.00;78.90;;;;;;5094226;28;20360;-69
2023/09/05 05:43:52;;;;;;;9.65;8.73;;;15.00;79.30;;;;;;5100021;28;20040;-70
2023/09/05 05:46:18;;;;;;;10.10;9.00;;;15.00;79.50;;;;;;5104405;28;20063;-69
2023/09/05 05:48:47;;;;;;;10.02;9.02;;;15.00;79.70;;;;;;5102138;28;20480;-70
2023/09/05 05:51:16;;;;;;;10.05;8.63;;;15.00;80.00;;;;;;5108844;28;20543;-69
2023/09/05 05:53:42;;;;;;;10.13;9.13;;;15.00;80.50;;;;;;5113198;28;20148;-69
2023/09/05 05:56:09;;;;;;;11.35;9.35;;;15.00;80.30;;;;;;5105882;28;20495;-69
2023/09/05 05:58:35;;;;;;;10.27;8.43;;;15.00;80.30;;;;;;5115243;27;20499;-69
2023/09/05 06:01:02;;;;;;;9.73;8.25;;;15.10;80.50;;;;;;5101647;28;20069;-70
2023/09/05 06:03:27;;;;;;;11.52;8.88;;;15.10;80.60;;;;;;5099041;28;20036;-70
2023/09/05 06:05:56;;;;;;;9.82;8.82;;;15.20;80.80;;;;;;5111364;28;20406;-70
2023/09/05 06:08:22;;;;;;;9.18;8.23;;;15.20;81.00;;;;;;5108994;28;20036;-70
2023/09/05 06:10:48;;;;;;;9.32;8.32;;;15.30;81.50;;;;;;5098197;28;20065;-70
2023/09/05 06:13:14;;;;;;;8.60;7.32;;;15.40;82.00;;;;;;5098024;28;20047;-70
2023/09/05 06:15:40;;;;;;;9.18;7.85;;;15.60;82.30;;;;;;5098393;28;20040;-70
2023/09/05 06:18:08;;;;;;;8.73;7.45;;;15.90;82.00;;;;;;5097786;28;20040;-70
2023/09/05 06:20:34;;;;;;;8.18;7.25;;;16.10;81.80;;;;;;5098224;28;20040;-70
2023/09/05 06:23:04;;;;;;;8.18;6.65;;;16.40;81.40;;;;;;5079090;28;20044;-70
2023/09/05 06:25:29;;;;;;;7.50;6.38;;;16.70;80.70;;;;;;5075893;28;20733;-70
2023/09/05 06:27:55;;;;;;;7.63;6.20;;;16.80;79.90;;;;;;5075776;28;20119;-70
2023/09/05 06:30:22;;;;;;;7.10;6.30;;;17.10;79.30;;;;;;5093026;28;20040;-70
2023/09/05 06:32:48;;;;;;;8.20;6.63;;;17.30;78.80;;;;;;5092191;28;20043;-70
2023/09/05 06:35:14;;;;;;;8.00;6.60;;;17.50;77.60;;;;;;5108350;28;20364;-70
2023/09/05 06:37:40;;;;;;;6.97;5.70;;;17.70;77.00;;;;;;5093696;28;20038;-70
2023/09/05 06:40:15;;;;;;;8.70;6.20;;;17.80;76.20;;;;;;5075648;28;20039;-70
2023/09/05 06:42:42;;;;;;;9.02;6.13;;;18.00;75.70;;;;;;5093756;28;20059;-70
2023/09/05 06:45:08;;;;;;;7.05;5.65;;;18.00;75.10;;;;;;5092232;28;20040;-70
2023/09/05 06:47:34;;;;;;;7.32;6.05;;;18.20;75.00;;;;;;5092360;28;20024;-70
2023/09/05 06:50:00;;;;;;;7.65;5.75;;;18.30;74.60;;;;;;5075185;28;20097;-70
2023/09/05 06:52:26;;;;;;;10.70;5.70;;;18.40;74.50;;;;;;5092355;28;20056;-70
2023/09/05 06:54:52;;;;;;;7.00;5.80;;;18.50;74.30;;;;;;5092287;28;20449;-70
2023/09/05 06:57:18;;;;;;;7.28;5.40;;;18.60;73.70;;;;;;5090950;28;20084;-70
2023/09/05 06:59:44;;;;;;;7.47;5.40;;;18.70;73.70;;;;;;5089376;28;20044;-70
2023/09/05 07:02:09;;;;;;;7.10;4.95;;;18.80;73.10;;;;;;5089132;28;20066;-70
2023/09/05 07:04:36;;;;;;;6.05;4.55;;;18.90;73.00;;;;;;5090137;28;20122;-70
2023/09/05 07:07:05;;;;;;;5.03;4.35;;;19.10;73.20;;;;;;5088652;28;20118;-71
2023/09/05 07:09:31;;;;;;;5.07;4.32;;;19.20;72.60;;;;;;5089202;28;20040;-70
2023/09/05 07:11:57;;;;;;;6.07;4.43;;;19.40;72.30;;;;;;5092749;28;20476;-70
2023/09/05 07:14:23;;;;;;;5.78;4.55;;;19.50;71.80;;;;;;5094675;28;20118;-70
2023/09/05 07:16:49;;;;;;;5.60;4.30;;;19.60;71.30;;;;;;5095572;28;20119;-70
2023/09/05 07:19:17;;;;;;;7.47;4.88;;;19.60;71.10;;;;;;5094438;28;20123;-70
2023/09/05 07:21:43;;;;;;;5.50;4.13;;;19.70;70.80;;;;;;5082719;28;20135;-70
2023/09/05 07:24:10;;;;;;;6.65;4.40;;;19.80;70.60;;;;;;5088485;28;20115;-71
2023/09/05 07:26:38;;;;;;;5.57;3.80;;;19.90;70.10;;;;;;5094135;28;20093;-71
2023/09/05 07:29:08;;;;;;;5.32;4.13;;;20.00;70.10;;;;;;5095361;28;20373;-71
2023/09/05 07:31:34;;;;;;;6.57;3.85;;;20.10;70.10;;;;;;5094348;28;20043;-71
2023/09/05 07:34:00;;;;;;;6.47;3.90;;;20.10;69.50;;;;;;5093131;28;20517;-71
2023/09/05 07:36:27;;;;;;;6.85;3.72;;;20.30;69.40;;;;;;5096921;28;20039;-71
2023/09/05 07:38:54;;;;;;;3.80;3.08;;;20.30;69.20;;;;;;5111082;28;20517;-71
2023/09/05 07:41:20;;;;;;;5.30;3.80;;;20.40;69.40;;;;;;5099332;28;20051;-71
2023/09/05 07:43:46;;;;;;;4.28;3.28;;;20.50;68.90;;;;;;5084034;28;20047;-71
2023/09/05 07:46:13;;;;;;;6.38;3.13;;;20.60;69.00;;;;;;5103854;28;20058;-73
2023/09/05 07:48:39;;;;;;;4.68;3.45;;;20.70;69.30;;;;;;5105998;28;20397;-72
2023/09/05 07:51:07;;;;;;;4.57;2.72;;;20.80;69.10;;;;;;5110987;28;20032;-70
2023/09/05 07:53:35;;;;;;;4.00;3.08;;;20.90;69.00;;;;;;5073356;28;20106;-70
2023/09/05 07:56:02;;;;;;;4.28;3.00;;;21.00;68.50;;;;;;5073295;28;20094;-69
2023/09/05 07:58:28;;;;;;;4.53;3.13;;;21.20;68.40;;;;;;5073081;28;20079;-70
2023/09/05 08:00:54;;;;;;;4.28;3.08;;;21.40;68.10;;;;;;5073313;28;20119;-70
2023/09/05 08:03:21;;;;;;;4.97;2.95;;;21.50;67.40;;;;;;5074335;28;20378;-69
2023/09/05 08:05:48;;;;;;;3.97;2.40;;;21.70;66.50;;;;;;5073182;28;20032;-70
2023/09/05 08:08:14;;;;;;;5.82;2.60;;;21.90;66.10;;;;;;5074108;28;20068;-69
2023/09/05 08:10:41;;;;;;;4.18;2.90;;;22.00;65.80;;;;;;5071855;28;20051;-69
2023/09/05 08:13:09;;;;;;;3.88;2.60;;;22.30;65.80;;;;;;5073044;28;20484;-69
2023/09/05 08:15:36;;;;;;;5.68;3.00;;;22.40;65.80;;;;;;5072927;28;20050;-69
2023/09/05 08:18:03;;;;;;;3.17;2.28;;;22.60;65.30;;;;;;5072953;28;20041;-70
2023/09/05 08:20:29;;;;;;;3.45;2.38;;;22.80;64.30;;;;;;5073167;28;20053;-70
2023/09/05 08:22:54;;;;;;;5.22;2.20;;;23.00;63.70;;;;;;5090442;28;20525;-70
2023/09/05 08:25:23;;;;;;;5.10;2.10;;;23.20;62.80;;;;;;5092885;28;20056;-70
2023/09/05 08:27:50;;;;;;;2.83;1.60;;;23.40;62.30;;;;;;5092984;28;20036;-69
2023/09/05 08:30:16;;;;;;;3.75;1.80;;;23.60;62.30;;;;;;5092905;28;20056;-69
2023/09/05 08:32:43;;;;;;;6.68;2.00;;;23.70;60.10;;;;;;5092773;28;20129;-70
2023/09/05 08:35:09;;;;;;;5.28;1.95;;;23.90;59.50;;;;;;5092728;28;20043;-70
2023/09/05 08:37:35;;;;;;;5.45;2.00;;;24.10;59.60;;;;;;5072740;28;20044;-69
2023/09/05 08:40:01;;;;;;;3.60;1.90;;;24.30;59.80;;;;;;5072492;28;20040;-69
2023/09/05 08:42:37;;;;;;;4.20;2.03;;;24.40;58.40;;;;;;5072453;28;20052;-69
2023/09/05 08:45:04;;;;;;;3.97;1.90;;;24.60;57.00;;;;;;5072144;28;20403;-69
2023/09/05 08:47:30;;;;;;;3.63;1.88;;;24.70;56.70;;;;;;5072252;28;20036;-70
2023/09/05 08:49:59;;;;;;;4.22;2.03;;;24.90;56.30;;;;;;5073558;28;20087;-69
2023/09/05 08:52:37;;;;;;;3.30;1.90;;;25.00;57.10;;;;;;5073585;28;20372;-70
2023/09/05 08:55:03;;;;;;;3.55;1.83;;;25.20;56.50;;;;;;5079156;28;20067;-69
2023/09/05 08:57:31;;;;;;;5.25;2.20;;;25.30;56.60;;;;;;5092187;28;20499;-70
2023/09/05 08:59:57;;;;;;;2.92;1.73;;;25.40;55.80;;;;;;5092438;28;20079;-70
2023/09/05 09:02:23;;;;;;;4.22;1.90;;;25.60;54.70;;;;;;5092577;28;20453;-70
2023/09/05 09:04:58;;;;;;;3.25;1.90;;;25.70;54.30;;;;;;5092320;28;20132;-69
2023/09/05 09:07:27;;;;;;;2.90;1.60;;;25.80;54.50;;;;;;5092105;28;20043;-69
2023/09/05 09:09:54;;;;;;;2.33;1.75;;;25.90;54.20;;;;;;5085330;28;20075;-69
2023/09/05 09:12:33;;;;;;;2.50;1.60;;;26.10;53.60;;;;;;5071973;28;20078;-70
2023/09/05 09:15:12;;;;;;;3.55;1.65;;;26.20;53.10;;;;;;5071921;28;20044;-69
2023/09/05 09:17:57;;;;;;;12.98;2.85;;;26.30;52.20;;;;;;5072166;28;20395;-70
2023/09/05 09:20:23;;;;;;;5.80;2.65;;;26.40;51.80;;;;;;5071457;28;20551;-70
2023/09/05 09:22:52;;;;;;;5.45;1.98;;;26.50;51.80;;;;;;5072120;28;20088;-70
2023/09/05 09:25:21;;;;;;;5.40;2.50;;;26.50;50.90;;;;;;5072926;28;20114;-71
2023/09/05 09:27:59;;;;;;;5.50;1.85;;;26.60;50.70;;;;;;5071687;28;20036;-71
2023/09/05 09:30:27;;;;;;;3.53;1.65;;;26.70;51.10;;;;;;5072026;28;20037;-71
2023/09/05 09:32:54;;;;;;;3.28;1.40;;;26.70;50.40;;;;;;5071624;28;20116;-71
2023/09/05 09:35:21;;;;;;;1.95;1.20;;;26.80;49.90;;;;;;5071659;28;20044;-71
2023/09/05 09:37:48;;;;;;;3.25;1.80;;;26.90;49.20;;;;;;5071865;28;20043;-71
2023/09/05 09:40:17;;;;;;;3.38;1.80;;;27.00;48.00;;;;;;5072702;28;20035;-71
2023/09/05 09:42:47;;;;;;;2.22;1.35;;;27.10;47.60;;;;;;5071610;28;20495;-70
2023/09/05 09:45:13;;;;;;;3.25;1.70;;;27.20;47.20;;;;;;5071463;28;20049;-71
2023/09/05 09:47:49;;;;;;;2.88;1.38;;;27.30;47.20;;;;;;5071717;28;20045;-71
2023/09/05 09:50:19;;;;;;;2.08;1.48;;;27.40;46.10;;;;;;5071596;28;20043;-71
2023/09/05 09:52:48;;;;;;;2.30;1.40;;;27.50;46.00;;;;;;5071541;28;20045;-71
2023/09/05 09:55:14;;;;;;;4.07;1.90;;;27.60;45.50;;;;;;5071421;28;20613;-71
2023/09/05 09:57:56;;;;;;;2.88;1.40;;;27.60;45.40;;;;;;5072334;28;20064;-71
2023/09/05 10:00:23;;;;;;;4.15;1.70;;;27.70;46.00;;;;;;5075491;28;20040;-71
2023/09/05 10:02:49;;;;;;;3.90;1.42;;;27.80;46.00;;;;;;5084509;28;20511;-71
2023/09/05 10:05:17;;;;;;;2.88;1.20;;;27.90;45.90;;;;;;5084837;28;20516;-71
2023/09/05 10:07:43;;;;;;;2.38;1.58;;;28.00;44.70;;;;;;5084161;28;20054;-71
2023/09/05 10:10:15;;;;;;;4.65;1.40;;;28.10;45.10;;;;;;5084312;28;20047;-71
2023/09/05 10:12:47;;;;;;;2.05;1.52;;;28.10;44.40;;;;;;5086189;28;20047;-71
2023/09/05 10:15:15;;;;;;;4.60;1.80;;;28.10;43.90;;;;;;5084480;28;20044;-71
2023/09/05 10:17:42;;;;;;;2.75;1.52;;;28.10;44.30;;;;;;5085521;28;20098;-71
2023/09/05 10:20:09;;;;;;;2.53;1.50;;;28.10;44.40;;;;;;5068319;28;20387;-71
2023/09/05 10:22:39;;;;;;;2.33;1.50;;;28.10;44.80;;;;;;5084484;28;20048;-70
2023/09/05 10:25:07;;;;;;;3.20;1.65;;;28.20;44.80;;;;;;5084552;28;20048;-71
2023/09/05 10:27:33;;;;;;;2.47;1.73;;;28.20;44.60;;;;;;5085140;28;20048;-71
2023/09/05 10:29:59;;;;;;;2.53;1.30;;;28.30;45.20;;;;;;5084533;28;20058;-71
2023/09/05 10:32:25;;;;;;;2.40;1.67;;;28.30;44.20;;;;;;5083592;28;20139;-71
2023/09/05 10:34:51;;;;;;;3.15;1.77;;;28.40;44.10;;;;;;5089045;28;20131;-71
2023/09/05 10:37:48;;;;;;;3.35;1.70;;;28.40;44.40;;;;;;5104757;28;20131;-71
2023/09/05 10:40:15;;;;;;;2.20;1.40;;;28.50;44.80;;;;;;5075094;28;20051;-70
2023/09/05 10:42:54;;;;;;;1.70;1.20;;;28.50;44.70;;;;;;5090084;28;20043;-71
2023/09/05 10:45:23;;;;;;;1.73;1.27;;;28.60;45.00;;;;;;5087576;28;20498;-71
2023/09/05 10:47:56;;;;;;;3.30;1.50;;;28.60;45.90;;;;;;5087073;28;20044;-71
2023/09/05 10:50:23;;;;;;;4.18;1.35;;;28.70;44.90;;;;;;5088505;28;20039;-71
2023/09/05 10:53:10;;;;;;;2.53;1.40;;;28.70;44.40;;;;;;5087870;28;20039;-70
2023/09/05 10:55:43;;;;;;;2.55;1.80;;;28.80;44.90;;;;;;5088033;28;20538;-71
2023/09/05 10:58:56;;;;;;;2.35;1.63;;;28.80;44.70;;;;;;5087456;28;20071;-70
2023/09/05 11:01:31;;;;;;;2.85;1.50;;;28.80;45.10;;;;;;5086995;28;20075;-71
2023/09/05 11:04:07;;;;;;;2.13;1.30;;;28.80;44.40;;;;;;5087659;28;20044;-71
2023/09/05 11:06:33;;;;;;;2.00;1.65;;;28.80;45.00;;;;;;5087593;28;20101;-71
2023/09/05 11:09:05;;;;;;;3.45;1.90;;;28.80;45.60;;;;;;5087537;28;20125;-71
2023/09/05 11:11:40;;;;;;;6.53;3.00;;;28.80;45.30;;;;;;5086823;28;20040;-70
2023/09/05 11:14:06;;;;;;;5.65;2.45;;;28.70;46.00;;;;;;5087612;28;20101;-71
2023/09/05 11:16:49;;;;;;;6.68;1.88;;;28.70;46.30;;;;;;5087183;28;20046;-70
2023/09/05 11:19:38;;;;;;;3.90;1.75;;;28.80;46.70;;;;;;5087263;28;20083;-71
2023/09/05 11:22:25;;;;;;;3.00;1.25;;;28.80;46.30;;;;;;5087111;28;20040;-71
2023/09/05 11:24:53;;;;;;;3.00;1.52;;;28.80;45.60;;;;;;5087689;28;20448;-71
2023/09/05 11:27:25;;;;;;;1.55;1.20;;;28.90;45.10;;;;;;5087873;28;20627;-71
2023/09/05 11:29:55;;;;;;;4.05;1.40;;;29.00;44.80;;;;;;5087020;28;20047;-71
2023/09/05 11:32:31;;;;;;;2.40;1.50;;;29.00;44.60;;;;;;5087407;28;20119;-71
2023/09/05 11:34:57;;;;;;;1.92;1.23;;;29.10;44.80;;;;;;5087009;28;20485;-70
2023/09/05 11:37:23;;;;;;;2.30;1.40;;;29.20;44.90;;;;;;5087940;28;20036;-71
2023/09/05 11:39:51;;;;;;;2.78;1.23;;;29.20;44.60;;;;;;5086101;28;20498;-70
2023/09/05 11:42:22;;;;;;;3.08;1.50;;;29.30;44.60;;;;;;5069925;28;20056;-71
2023/09/05 11:44:49;;;;;;;2.85;1.70;;;29.20;44.00;;;;;;5069250;28;20498;-70
2023/09/05 11:47:16;;;;;;;2.15;1.30;;;29.20;43.90;;;;;;5102812;28;20036;-70
2023/09/05 11:49:43;;;;;;;2.67;1.40;;;29.20;44.20;;;;;;5086596;28;20549;-71
2023/09/05 11:52:10;;;;;;;2.60;1.48;;;29.30;44.50;;;;;;5086774;28;20402;-71
2023/09/05 11:54:35;;;;;;;2.00;1.33;;;29.20;44.00;;;;;;5087153;28;20108;-70
2023/09/05 11:57:02;;;;;;;2.28;1.30;;;29.30;44.40;;;;;;5085892;28;20052;-71
2023/09/05 11:59:29;;;;;;;4.13;1.30;;;29.30;44.70;;;;;;5086625;28;20149;-71
2023/09/05 12:01:55;;;;;;;2.33;1.20;;;29.30;44.80;;;;;;5086405;28;20047;-71
2023/09/05 12:04:22;;;;;;;2.38;1.50;;;29.40;44.40;;;;;;5085554;28;20040;-71
2023/09/05 12:06:52;;;;;;;3.65;1.50;;;29.40;44.30;;;;;;5086346;28;20124;-70
2023/09/05 12:09:20;;;;;;;2.88;1.40;;;29.50;44.30;;;;;;5088208;28;20100;-71
2023/09/05 12:11:46;;;;;;;2.45;1.30;;;29.60;44.00;;;;;;5086905;28;20067;-71
2023/09/05 12:14:13;;;;;;;1.85;1.00;;;29.50;44.00;;;;;;5085948;28;20043;-71
2023/09/05 12:16:45;;;;;;;5.47;1.83;;;29.50;44.10;;;;;;5087095;28;20055;-71
2023/09/05 12:19:11;;;;;;;3.70;1.50;;;29.60;44.80;;;;;;5086580;28;20075;-70
2023/09/05 12:21:45;;;;;;;3.30;1.40;;;29.60;44.60;;;;;;5086024;28;20137;-71
2023/09/05 12:24:23;;;;;;;2.00;1.50;;;29.60;44.20;;;;;;5085735;28;20071;-70
2023/09/05 12:26:53;;;;;;;2.58;1.40;;;29.50;44.30;;;;;;5086414;28;20433;-70
2023/09/05 12:29:36;;;;;;;1.75;1.20;;;29.50;44.60;;;;;;5069223;28;20037;-70
2023/09/05 12:32:02;;;;;;;2.72;1.48;;;29.50;44.60;;;;;;5087360;28;20036;-70
2023/09/05 12:34:28;;;;;;;3.35;1.20;;;29.40;44.20;;;;;;5068863;28;20115;-70
2023/09/05 12:36:53;;;;;;;3.38;1.50;;;29.40;43.40;;;;;;5085517;28;20040;-71
2023/09/05 12:39:19;;;;;;;2.00;1.15;;;29.40;43.70;;;;;;5085140;28;20040;-70
2023/09/05 12:41:46;;;;;;;2.30;1.10;;;29.30;44.00;;;;;;5085708;28;20699;-70
2023/09/05 12:44:12;;;;;;;4.13;1.30;;;29.30;44.10;;;;;;5069282;28;20131;-71
2023/09/05 12:46:38;;;;;;;3.25;1.30;;;29.30;44.20;;;;;;5102038;28;20114;-70
2023/09/05 12:49:04;;;;;;;2.83;1.25;;;29.20;44.10;;;;;;5085339;28;20036;-70